createdAt,value
2022-12-09T00:02:01.152Z,8.93
2022-12-09T00:06:15.008Z,8.77
2022-12-09T00:10:24.369Z,8.50
2022-12-09T00:14:33.692Z,8.97
2022-12-09T00:18:44.998Z,21.23
2022-12-09T00:22:54.249Z,10.50
2022-12-09T00:27:03.463Z,9.00
2022-12-09T00:31:15.650Z,9.80
2022-12-09T00:35:26.688Z,8.43
2022-12-09T00:39:35.905Z,8.70
2022-12-09T00:43:45.870Z,7.97
2022-12-09T00:47:55.221Z,8.17
2022-12-09T00:52:06.407Z,7.97
2022-12-09T00:56:16.045Z,9.03
2022-12-09T01:00:25.472Z,8.73
2022-12-09T01:04:35.168Z,8.10
2022-12-09T01:08:46.365Z,8.70
2022-12-09T01:12:55.656Z,7.30
2022-12-09T01:17:05.180Z,7.63
2022-12-09T01:21:14.738Z,7.37
2022-12-09T01:25:25.691Z,8.70
2022-12-09T01:29:35.184Z,8.37
2022-12-09T01:33:45.322Z,7.53
2022-12-09T01:37:54.682Z,7.50
2022-12-09T01:42:06.380Z,7.43
2022-12-09T01:46:15.789Z,7.13
2022-12-09T01:50:26.744Z,7.27
2022-12-09T01:54:36.436Z,6.80
2022-12-09T01:58:47.957Z,7.30
2022-12-09T02:02:58.899Z,7.60
2022-12-09T02:07:11.927Z,8.70
2022-12-09T02:11:31.545Z,7.93
2022-12-09T02:15:48.837Z,8.33
2022-12-09T02:20:05.738Z,7.87
2022-12-09T02:24:20.118Z,8.43
2022-12-09T02:29:05.045Z,7.03
2022-12-09T02:33:42.024Z,6.03
2022-12-09T02:37:56.545Z,6.13
2022-12-09T02:42:08.444Z,6.47
2022-12-09T02:46:20.754Z,6.50
2022-12-09T02:50:34.126Z,6.87
2022-12-09T02:54:46.188Z,7.00
2022-12-09T02:58:55.814Z,7.20
2022-12-09T03:03:09.984Z,6.30
2022-12-09T03:07:27.399Z,7.00
2022-12-09T03:11:39.636Z,7.50
2022-12-09T03:15:55.076Z,6.40
2022-12-09T03:20:09.008Z,7.07
2022-12-09T03:24:23.188Z,6.87
2022-12-09T03:28:37.051Z,7.50
2022-12-09T03:32:48.131Z,7.07
2022-12-09T03:36:59.526Z,7.10
2022-12-09T03:41:14.833Z,7.00
2022-12-09T03:45:26.088Z,7.57
2022-12-09T03:49:37.286Z,7.40
2022-12-09T03:53:51.576Z,7.73
2022-12-09T03:58:03.787Z,7.37
2022-12-09T04:02:15.788Z,6.70
2022-12-09T04:06:26.612Z,7.93
2022-12-09T04:10:38.987Z,8.57
2022-12-09T04:14:48.435Z,9.03
2022-12-09T04:18:59.177Z,9.07
2022-12-09T04:23:08.738Z,8.73
2022-12-09T04:27:19.642Z,9.20
2022-12-09T04:31:29.331Z,9.10
2022-12-09T04:35:40.925Z,9.40
2022-12-09T04:39:50.413Z,9.13
2022-12-09T04:44:00.060Z,10.20
2022-12-09T04:48:09.329Z,10.50
2022-12-09T04:52:21.669Z,10.57
2022-12-09T04:56:31.029Z,9.47
2022-12-09T05:00:40.419Z,9.50
2022-12-09T05:04:51.593Z,9.57
2022-12-09T05:09:02.754Z,9.07
2022-12-09T05:13:12.524Z,10.80
2022-12-09T05:17:28.201Z,11.10
2022-12-09T05:21:37.434Z,11.80
2022-12-09T05:25:48.635Z,12.50
2022-12-09T05:29:58.329Z,9.80
2022-12-09T05:34:08.476Z,10.47
2022-12-09T05:38:19.555Z,10.20
2022-12-09T05:42:31.463Z,10.50
2022-12-09T05:46:45.532Z,10.27
2022-12-09T05:51:02.994Z,9.80
2022-12-09T05:55:12.879Z,10.23
2022-12-09T05:59:24.843Z,10.13
2022-12-09T06:03:35.057Z,10.73
2022-12-09T06:07:44.842Z,10.40
2022-12-09T06:11:55.267Z,9.53
2022-12-09T06:16:06.946Z,10.43
2022-12-09T06:20:16.394Z,10.90
2022-12-09T06:24:25.805Z,10.07
2022-12-09T06:28:35.989Z,10.60
2022-12-09T06:32:48.275Z,10.97
2022-12-09T06:37:00.850Z,10.93
2022-12-09T06:41:11.090Z,10.23
2022-12-09T06:45:21.712Z,10.43
2022-12-09T06:49:32.990Z,11.03
2022-12-09T06:53:42.479Z,10.80
2022-12-09T06:57:51.654Z,10.60
2022-12-09T07:02:01.110Z,12.17
2022-12-09T07:06:23.817Z,11.53
2022-12-09T07:10:36.318Z,11.27
2022-12-09T07:14:46.266Z,11.30
2022-12-09T07:18:56.462Z,11.63
2022-12-09T07:23:07.605Z,11.00
2022-12-09T07:27:19.796Z,12.40
2022-12-09T07:31:31.048Z,12.63
2022-12-09T07:35:42.407Z,12.33
2022-12-09T07:39:53.320Z,12.27
2022-12-09T07:44:03.332Z,13.33
2022-12-09T07:48:13.505Z,12.47
2022-12-09T07:52:24.181Z,13.07
2022-12-09T07:56:35.111Z,14.43
2022-12-09T08:00:44.679Z,13.27
2022-12-09T08:04:54.364Z,22.97
2022-12-09T08:09:07.597Z,12.47
2022-12-09T08:13:18.944Z,12.93
2022-12-09T08:17:30.314Z,14.00
2022-12-09T08:21:40.722Z,14.63
2022-12-09T08:25:55.332Z,14.87
2022-12-09T08:30:07.778Z,13.90
2022-12-09T08:34:17.778Z,14.73
2022-12-09T08:38:27.095Z,14.90
2022-12-09T08:42:36.628Z,13.87
2022-12-09T08:46:49.310Z,15.00
2022-12-09T08:50:59.236Z,13.57
2022-12-09T08:55:14.598Z,14.70
2022-12-09T08:59:25.530Z,14.83
2022-12-09T09:03:40.192Z,14.17
2022-12-09T09:07:51.664Z,14.27
2022-12-09T09:12:05.451Z,14.13
2022-12-09T09:25:12.825Z,12.97
2022-12-09T09:29:25.554Z,13.03
2022-12-09T09:33:48.155Z,13.57
2022-12-09T09:38:12.018Z,12.87
2022-12-09T09:42:35.146Z,12.83
2022-12-09T09:47:07.876Z,12.60
2022-12-09T12:02:51.800Z,6.00
2022-12-09T13:09:31.345Z,4.70
2022-12-09T15:36:59.771Z,3.77
2022-12-09T15:51:37.470Z,4.20
2022-12-09T16:00:24.070Z,4.97
2022-12-09T16:14:17.786Z,5.83
2022-12-09T16:38:41.724Z,5.60
2022-12-09T16:42:53.147Z,7.60
2022-12-09T16:47:12.903Z,8.50
2022-12-09T16:51:26.587Z,9.10
2022-12-09T16:55:37.725Z,9.20
2022-12-09T16:59:48.375Z,8.77
2022-12-09T17:04:01.466Z,8.70
2022-12-09T17:08:10.876Z,10.43
2022-12-09T17:12:22.644Z,11.40
2022-12-09T17:16:33.084Z,11.20
2022-12-09T17:20:42.826Z,11.57
2022-12-09T17:24:52.664Z,12.57
2022-12-09T17:29:03.805Z,11.97
2022-12-09T17:33:12.945Z,12.87
2022-12-09T17:37:22.263Z,12.97
2022-12-09T17:41:31.945Z,11.83
2022-12-09T17:45:43.247Z,12.07
2022-12-09T17:49:52.505Z,11.23
2022-12-09T17:54:02.249Z,10.73
2022-12-09T17:58:11.606Z,9.83
2022-12-09T18:02:22.843Z,9.67
2022-12-09T18:06:35.077Z,11.00
2022-12-09T18:10:44.545Z,10.23
2022-12-09T18:14:53.843Z,11.07
2022-12-09T18:19:12.404Z,10.00
2022-12-09T18:23:22.046Z,8.83
2022-12-09T18:27:32.127Z,9.40
2022-12-09T18:31:41.805Z,10.17
2022-12-09T18:35:53.025Z,10.30
2022-12-09T18:40:02.284Z,9.70
2022-12-09T18:44:13.585Z,10.10
2022-12-09T18:48:22.844Z,10.40
2022-12-09T18:52:34.183Z,11.33
2022-12-09T18:56:43.465Z,12.63
2022-12-09T19:00:52.726Z,14.97
2022-12-09T19:05:02.185Z,15.33
2022-12-09T19:09:14.645Z,14.67
2022-12-09T19:13:23.903Z,13.20
2022-12-09T19:17:33.263Z,13.70
2022-12-09T19:21:42.684Z,14.13
2022-12-09T19:25:53.625Z,14.07
2022-12-09T19:30:03.443Z,14.20
2022-12-09T19:34:15.707Z,13.73
2022-12-09T19:38:24.884Z,14.03
2022-12-09T19:42:35.784Z,13.57
2022-12-09T19:46:45.528Z,13.50
2022-12-09T19:50:54.806Z,14.60
2022-12-09T19:55:04.109Z,15.27
2022-12-09T19:59:15.924Z,15.30
2022-12-09T20:03:25.684Z,15.50
2022-12-09T20:07:34.811Z,14.93
2022-12-09T20:11:44.624Z,15.17
2022-12-09T20:15:55.608Z,15.57
2022-12-09T20:20:05.645Z,15.93
2022-12-09T20:24:15.346Z,16.57
2022-12-09T20:28:24.443Z,17.07
2022-12-09T20:32:35.699Z,17.50
2022-12-09T20:36:47.063Z,17.00
2022-12-09T20:40:56.124Z,18.30
2022-12-09T20:45:06.383Z,18.50
2022-12-09T20:49:17.145Z,19.60
2022-12-09T20:53:26.405Z,18.77
2022-12-09T20:57:36.282Z,19.50
2022-12-09T21:01:47.604Z,17.43
2022-12-09T21:06:00.123Z,17.70
2022-12-09T21:10:10.594Z,16.60
2022-12-09T21:14:21.085Z,16.97
2022-12-09T21:18:30.286Z,16.17
2022-12-09T21:22:40.945Z,16.60
2022-12-09T21:26:53.413Z,15.50
2022-12-09T21:31:09.170Z,16.17
2022-12-09T21:35:18.465Z,15.43
2022-12-09T21:39:29.786Z,16.07
2022-12-09T21:43:39.764Z,17.33
2022-12-09T21:47:48.973Z,16.20
2022-12-09T21:51:58.213Z,15.20
2022-12-09T21:56:11.032Z,17.70
2022-12-09T22:00:20.690Z,17.20
2022-12-09T22:04:29.852Z,15.73
2022-12-09T22:08:40.709Z,15.97
2022-12-09T23:40:59.192Z,15.73
2022-12-09T23:45:09.411Z,16.20
2022-12-09T23:49:19.332Z,14.13
2022-12-09T23:53:28.551Z,14.80
2022-12-09T23:57:39.231Z,14.43
